sensor_id;sensor_type;location;lat;lon;timestamp;P1;durP1;ratioP1;P2;durP2;ratioP2
21507;SDS011;10915;54.352;9.074;2022-08-21T00:02:25;10.40;;;4.50;;
21507;SDS011;10915;54.352;9.074;2022-08-21T00:04:52;9.23;;;4.50;;
21507;SDS011;10915;54.352;9.074;2022-08-21T00:07:18;9.97;;;4.47;;
21507;SDS011;10915;54.352;9.074;2022-08-21T00:09:44;7.30;;;3.80;;
21507;SDS011;10915;54.352;9.074;2022-08-21T00:12:10;12.30;;;4.80;;
21507;SDS011;10915;54.352;9.074;2022-08-21T00:14:35;9.83;;;4.63;;
21507;SDS011;10915;54.352;9.074;2022-08-21T00:17:02;8.73;;;4.20;;
21507;SDS011;10915;54.352;9.074;2022-08-21T00:19:29;10.33;;;4.97;;
21507;SDS011;10915;54.352;9.074;2022-08-21T00:21:55;11.83;;;5.07;;
21507;SDS011;10915;54.352;9.074;2022-08-21T00:24:21;10.33;;;4.90;;
21507;SDS011;10915;54.352;9.074;2022-08-21T00:26:48;10.97;;;5.17;;
21507;SDS011;10915;54.352;9.074;2022-08-21T00:29:14;11.27;;;5.03;;
21507;SDS011;10915;54.352;9.074;2022-08-21T00:31:40;11.23;;;5.37;;
21507;SDS011;10915;54.352;9.074;2022-08-21T00:34:06;10.37;;;4.97;;
21507;SDS011;10915;54.352;9.074;2022-08-21T00:36:32;9.93;;;5.10;;
21507;SDS011;10915;54.352;9.074;2022-08-21T00:38:59;9.77;;;5.50;;
21507;SDS011;10915;54.352;9.074;2022-08-21T00:41:25;9.93;;;5.37;;
21507;SDS011;10915;54.352;9.074;2022-08-21T00:43:52;11.93;;;5.50;;
21507;SDS011;10915;54.352;9.074;2022-08-21T00:46:18;10.83;;;5.00;;
21507;SDS011;10915;54.352;9.074;2022-08-21T00:48:44;8.23;;;5.47;;
21507;SDS011;10915;54.352;9.074;2022-08-21T00:51:11;10.77;;;5.20;;
21507;SDS011;10915;54.352;9.074;2022-08-21T00:53:47;11.03;;;5.33;;
21507;SDS011;10915;54.352;9.074;2022-08-21T00:56:14;8.93;;;5.87;;
21507;SDS011;10915;54.352;9.074;2022-08-21T00:58:40;10.37;;;5.77;;
21507;SDS011;10915;54.352;9.074;2022-08-21T01:01:07;10.53;;;5.70;;
21507;SDS011;10915;54.352;9.074;2022-08-21T01:03:34;10.63;;;5.70;;
21507;SDS011;10915;54.352;9.074;2022-08-21T01:06:01;9.90;;;5.87;;
21507;SDS011;10915;54.352;9.074;2022-08-21T01:08:29;10.97;;;5.43;;
21507;SDS011;10915;54.352;9.074;2022-08-21T01:10:55;11.50;;;5.93;;
21507;SDS011;10915;54.352;9.074;2022-08-21T01:13:24;11.57;;;5.27;;
21507;SDS011;10915;54.352;9.074;2022-08-21T01:15:52;12.77;;;5.40;;
21507;SDS011;10915;54.352;9.074;2022-08-21T01:18:20;9.17;;;5.50;;
21507;SDS011;10915;54.352;9.074;2022-08-21T01:21:06;10.63;;;5.93;;
21507;SDS011;10915;54.352;9.074;2022-08-21T01:23:32;11.00;;;5.60;;
21507;SDS011;10915;54.352;9.074;2022-08-21T01:25:59;10.23;;;5.43;;
21507;SDS011;10915;54.352;9.074;2022-08-21T01:28:25;12.50;;;5.67;;
21507;SDS011;10915;54.352;9.074;2022-08-21T01:30:55;8.63;;;5.53;;
21507;SDS011;10915;54.352;9.074;2022-08-21T01:33:21;11.27;;;6.20;;
21507;SDS011;10915;54.352;9.074;2022-08-21T01:35:49;14.83;;;6.27;;
21507;SDS011;10915;54.352;9.074;2022-08-21T01:38:15;10.60;;;5.60;;
21507;SDS011;10915;54.352;9.074;2022-08-21T01:40:41;10.10;;;6.10;;
21507;SDS011;10915;54.352;9.074;2022-08-21T01:43:07;14.13;;;5.57;;
21507;SDS011;10915;54.352;9.074;2022-08-21T01:45:32;9.73;;;6.50;;
21507;SDS011;10915;54.352;9.074;2022-08-21T01:47:58;12.47;;;5.83;;
21507;SDS011;10915;54.352;9.074;2022-08-21T01:50:24;10.93;;;5.77;;
21507;SDS011;10915;54.352;9.074;2022-08-21T01:52:50;9.27;;;5.60;;
21507;SDS011;10915;54.352;9.074;2022-08-21T01:55:17;9.77;;;5.13;;
21507;SDS011;10915;54.352;9.074;2022-08-21T01:57:44;10.60;;;5.70;;
21507;SDS011;10915;54.352;9.074;2022-08-21T02:00:12;11.70;;;5.63;;
21507;SDS011;10915;54.352;9.074;2022-08-21T02:02:40;12.03;;;6.43;;
21507;SDS011;10915;54.352;9.074;2022-08-21T02:05:06;10.97;;;5.90;;
21507;SDS011;10915;54.352;9.074;2022-08-21T02:07:40;12.13;;;6.27;;
21507;SDS011;10915;54.352;9.074;2022-08-21T02:10:09;12.33;;;6.20;;
21507;SDS011;10915;54.352;9.074;2022-08-21T02:12:36;11.43;;;6.17;;
21507;SDS011;10915;54.352;9.074;2022-08-21T02:15:02;10.00;;;6.23;;
21507;SDS011;10915;54.352;9.074;2022-08-21T02:17:36;9.67;;;6.40;;
21507;SDS011;10915;54.352;9.074;2022-08-21T02:20:03;9.83;;;5.77;;
21507;SDS011;10915;54.352;9.074;2022-08-21T02:22:29;11.70;;;6.67;;
21507;SDS011;10915;54.352;9.074;2022-08-21T02:24:55;11.73;;;6.80;;
21507;SDS011;10915;54.352;9.074;2022-08-21T02:27:21;11.53;;;6.40;;
21507;SDS011;10915;54.352;9.074;2022-08-21T02:29:48;9.73;;;6.30;;
21507;SDS011;10915;54.352;9.074;2022-08-21T02:32:14;11.53;;;6.50;;
21507;SDS011;10915;54.352;9.074;2022-08-21T02:34:39;12.67;;;6.43;;
21507;SDS011;10915;54.352;9.074;2022-08-21T02:37:05;12.33;;;6.83;;
21507;SDS011;10915;54.352;9.074;2022-08-21T02:39:31;9.43;;;6.73;;
21507;SDS011;10915;54.352;9.074;2022-08-21T02:41:56;10.87;;;6.93;;
21507;SDS011;10915;54.352;9.074;2022-08-21T02:44:22;8.57;;;6.47;;
21507;SDS011;10915;54.352;9.074;2022-08-21T02:46:48;11.17;;;7.10;;
21507;SDS011;10915;54.352;9.074;2022-08-21T02:49:14;13.40;;;7.40;;
21507;SDS011;10915;54.352;9.074;2022-08-21T02:51:39;14.20;;;7.70;;
21507;SDS011;10915;54.352;9.074;2022-08-21T02:54:05;11.53;;;6.80;;
21507;SDS011;10915;54.352;9.074;2022-08-21T02:56:31;16.07;;;8.10;;
21507;SDS011;10915;54.352;9.074;2022-08-21T02:58:57;13.77;;;7.60;;
21507;SDS011;10915;54.352;9.074;2022-08-21T03:01:22;10.50;;;7.03;;
21507;SDS011;10915;54.352;9.074;2022-08-21T03:03:48;10.77;;;7.33;;
21507;SDS011;10915;54.352;9.074;2022-08-21T03:06:17;14.00;;;7.40;;
21507;SDS011;10915;54.352;9.074;2022-08-21T03:08:45;15.13;;;8.00;;
21507;SDS011;10915;54.352;9.074;2022-08-21T03:11:11;10.90;;;6.93;;
21507;SDS011;10915;54.352;9.074;2022-08-21T03:13:38;12.13;;;7.30;;
21507;SDS011;10915;54.352;9.074;2022-08-21T03:16:04;11.80;;;6.90;;
21507;SDS011;10915;54.352;9.074;2022-08-21T03:18:31;10.33;;;6.80;;
21507;SDS011;10915;54.352;9.074;2022-08-21T03:20:57;11.07;;;6.40;;
21507;SDS011;10915;54.352;9.074;2022-08-21T03:23:22;11.03;;;7.23;;
21507;SDS011;10915;54.352;9.074;2022-08-21T03:25:48;13.10;;;7.10;;
21507;SDS011;10915;54.352;9.074;2022-08-21T03:28:17;13.50;;;6.87;;
21507;SDS011;10915;54.352;9.074;2022-08-21T03:30:45;14.67;;;7.13;;
21507;SDS011;10915;54.352;9.074;2022-08-21T03:33:13;13.20;;;6.97;;
21507;SDS011;10915;54.352;9.074;2022-08-21T03:35:39;12.17;;;6.83;;
21507;SDS011;10915;54.352;9.074;2022-08-21T03:38:06;10.53;;;7.17;;
21507;SDS011;10915;54.352;9.074;2022-08-21T03:40:32;13.23;;;6.63;;
21507;SDS011;10915;54.352;9.074;2022-08-21T03:42:58;11.77;;;7.03;;
21507;SDS011;10915;54.352;9.074;2022-08-21T03:45:24;13.40;;;7.03;;
21507;SDS011;10915;54.352;9.074;2022-08-21T03:47:54;11.80;;;6.47;;
21507;SDS011;10915;54.352;9.074;2022-08-21T03:50:24;12.23;;;6.27;;
21507;SDS011;10915;54.352;9.074;2022-08-21T03:52:51;11.80;;;6.67;;
21507;SDS011;10915;54.352;9.074;2022-08-21T03:55:16;9.37;;;6.83;;
21507;SDS011;10915;54.352;9.074;2022-08-21T03:57:42;14.27;;;6.80;;
21507;SDS011;10915;54.352;9.074;2022-08-21T04:00:08;9.70;;;6.40;;
21507;SDS011;10915;54.352;9.074;2022-08-21T04:02:37;12.63;;;6.47;;
21507;SDS011;10915;54.352;9.074;2022-08-21T04:05:03;10.40;;;6.97;;
21507;SDS011;10915;54.352;9.074;2022-08-21T04:07:29;13.93;;;7.77;;
21507;SDS011;10915;54.352;9.074;2022-08-21T04:09:55;10.47;;;6.93;;
21507;SDS011;10915;54.352;9.074;2022-08-21T04:12:21;10.00;;;6.53;;
21507;SDS011;10915;54.352;9.074;2022-08-21T04:14:48;11.60;;;7.30;;
21507;SDS011;10915;54.352;9.074;2022-08-21T04:17:16;11.70;;;6.97;;
21507;SDS011;10915;54.352;9.074;2022-08-21T04:19:42;14.07;;;7.70;;
21507;SDS011;10915;54.352;9.074;2022-08-21T04:22:08;9.93;;;7.27;;
21507;SDS011;10915;54.352;9.074;2022-08-21T04:24:33;12.00;;;8.03;;
21507;SDS011;10915;54.352;9.074;2022-08-21T04:26:59;11.87;;;7.60;;
21507;SDS011;10915;54.352;9.074;2022-08-21T04:29:25;12.07;;;7.20;;
21507;SDS011;10915;54.352;9.074;2022-08-21T04:31:51;13.47;;;7.53;;
21507;SDS011;10915;54.352;9.074;2022-08-21T04:34:17;13.27;;;7.60;;
21507;SDS011;10915;54.352;9.074;2022-08-21T04:36:43;13.90;;;8.20;;
21507;SDS011;10915;54.352;9.074;2022-08-21T04:39:09;12.50;;;7.47;;
21507;SDS011;10915;54.352;9.074;2022-08-21T04:41:35;11.07;;;6.70;;
21507;SDS011;10915;54.352;9.074;2022-08-21T04:44:01;12.67;;;7.43;;
21507;SDS011;10915;54.352;9.074;2022-08-21T04:46:28;14.00;;;7.50;;
21507;SDS011;10915;54.352;9.074;2022-08-21T04:48:53;10.13;;;6.90;;
21507;SDS011;10915;54.352;9.074;2022-08-21T04:51:23;11.20;;;6.90;;
21507;SDS011;10915;54.352;9.074;2022-08-21T04:53:57;12.10;;;7.40;;
21507;SDS011;10915;54.352;9.074;2022-08-21T04:59:03;10.10;;;6.23;;
21507;SDS011;10915;54.352;9.074;2022-08-21T05:01:32;10.80;;;6.30;;
21507;SDS011;10915;54.352;9.074;2022-08-21T05:03:59;9.80;;;6.33;;
21507;SDS011;10915;54.352;9.074;2022-08-21T05:06:30;10.23;;;6.30;;
21507;SDS011;10915;54.352;9.074;2022-08-21T05:08:59;9.67;;;6.60;;
21507;SDS011;10915;54.352;9.074;2022-08-21T05:11:26;9.77;;;6.47;;
21507;SDS011;10915;54.352;9.074;2022-08-21T05:13:51;12.00;;;7.07;;
21507;SDS011;10915;54.352;9.074;2022-08-21T05:16:17;11.07;;;6.23;;
21507;SDS011;10915;54.352;9.074;2022-08-21T05:18:43;12.13;;;6.57;;
21507;SDS011;10915;54.352;9.074;2022-08-21T05:21:08;9.27;;;5.97;;
21507;SDS011;10915;54.352;9.074;2022-08-21T05:23:34;10.60;;;6.60;;
21507;SDS011;10915;54.352;9.074;2022-08-21T05:26:01;11.23;;;6.63;;
21507;SDS011;10915;54.352;9.074;2022-08-21T05:28:26;9.30;;;6.03;;
21507;SDS011;10915;54.352;9.074;2022-08-21T05:30:52;11.20;;;5.63;;
21507;SDS011;10915;54.352;9.074;2022-08-21T05:33:18;10.63;;;6.17;;
21507;SDS011;10915;54.352;9.074;2022-08-21T05:35:49;11.57;;;6.10;;
21507;SDS011;10915;54.352;9.074;2022-08-21T05:38:17;9.20;;;5.83;;
21507;SDS011;10915;54.352;9.074;2022-08-21T05:40:43;12.00;;;5.57;;
21507;SDS011;10915;54.352;9.074;2022-08-21T05:43:09;10.30;;;5.40;;
21507;SDS011;10915;54.352;9.074;2022-08-21T05:45:34;9.87;;;5.10;;
21507;SDS011;10915;54.352;9.074;2022-08-21T05:48:07;10.60;;;4.97;;
21507;SDS011;10915;54.352;9.074;2022-08-21T05:50:34;10.43;;;5.03;;
21507;SDS011;10915;54.352;9.074;2022-08-21T05:52:59;8.57;;;4.10;;
21507;SDS011;10915;54.352;9.074;2022-08-21T05:55:26;6.00;;;3.80;;
21507;SDS011;10915;54.352;9.074;2022-08-21T05:57:51;8.70;;;4.20;;
21507;SDS011;10915;54.352;9.074;2022-08-21T06:00:17;5.93;;;3.47;;
21507;SDS011;10915;54.352;9.074;2022-08-21T06:02:43;8.00;;;3.73;;
21507;SDS011;10915;54.352;9.074;2022-08-21T06:05:09;8.50;;;4.73;;
21507;SDS011;10915;54.352;9.074;2022-08-21T06:07:34;7.80;;;4.37;;
21507;SDS011;10915;54.352;9.074;2022-08-21T06:10:00;6.87;;;4.17;;
21507;SDS011;10915;54.352;9.074;2022-08-21T06:12:27;10.10;;;4.43;;
21507;SDS011;10915;54.352;9.074;2022-08-21T06:14:53;8.73;;;4.77;;
21507;SDS011;10915;54.352;9.074;2022-08-21T06:17:19;11.57;;;5.67;;
21507;SDS011;10915;54.352;9.074;2022-08-21T06:19:44;8.37;;;4.20;;
21507;SDS011;10915;54.352;9.074;2022-08-21T06:22:10;7.73;;;4.47;;
21507;SDS011;10915;54.352;9.074;2022-08-21T06:24:36;11.93;;;4.53;;
21507;SDS011;10915;54.352;9.074;2022-08-21T06:27:05;8.70;;;4.30;;
21507;SDS011;10915;54.352;9.074;2022-08-21T06:29:32;12.20;;;4.53;;
21507;SDS011;10915;54.352;9.074;2022-08-21T06:31:58;10.03;;;5.50;;
21507;SDS011;10915;54.352;9.074;2022-08-21T06:34:24;10.90;;;4.77;;
21507;SDS011;10915;54.352;9.074;2022-08-21T06:36:49;9.00;;;4.57;;
21507;SDS011;10915;54.352;9.074;2022-08-21T06:39:16;11.13;;;4.60;;
21507;SDS011;10915;54.352;9.074;2022-08-21T06:41:42;8.57;;;4.17;;
21507;SDS011;10915;54.352;9.074;2022-08-21T06:44:07;8.37;;;4.10;;
21507;SDS011;10915;54.352;9.074;2022-08-21T06:46:33;8.77;;;4.57;;
21507;SDS011;10915;54.352;9.074;2022-08-21T06:48:59;10.03;;;3.10;;
21507;SDS011;10915;54.352;9.074;2022-08-21T06:51:25;5.83;;;3.00;;
21507;SDS011;10915;54.352;9.074;2022-08-21T06:53:51;8.73;;;3.77;;
21507;SDS011;10915;54.352;9.074;2022-08-21T06:56:17;6.23;;;3.07;;
21507;SDS011;10915;54.352;9.074;2022-08-21T06:58:43;10.63;;;3.40;;
21507;SDS011;10915;54.352;9.074;2022-08-21T07:01:09;7.00;;;2.73;;
21507;SDS011;10915;54.352;9.074;2022-08-21T07:03:35;11.27;;;3.43;;
21507;SDS011;10915;54.352;9.074;2022-08-21T07:06:06;12.47;;;3.47;;
21507;SDS011;10915;54.352;9.074;2022-08-21T07:08:32;7.87;;;3.40;;
21507;SDS011;10915;54.352;9.074;2022-08-21T07:10:59;7.13;;;2.63;;
21507;SDS011;10915;54.352;9.074;2022-08-21T07:13:27;6.07;;;2.67;;
21507;SDS011;10915;54.352;9.074;2022-08-21T07:15:53;6.67;;;2.77;;
21507;SDS011;10915;54.352;9.074;2022-08-21T07:18:19;5.20;;;2.50;;
21507;SDS011;10915;54.352;9.074;2022-08-21T07:23:18;11.53;;;2.93;;
21507;SDS011;10915;54.352;9.074;2022-08-21T07:25:49;8.50;;;3.33;;
21507;SDS011;10915;54.352;9.074;2022-08-21T07:28:15;12.07;;;3.50;;
21507;SDS011;10915;54.352;9.074;2022-08-21T07:30:40;9.60;;;3.53;;
21507;SDS011;10915;54.352;9.074;2022-08-21T07:33:06;7.17;;;3.47;;
21507;SDS011;10915;54.352;9.074;2022-08-21T07:35:32;10.50;;;3.00;;
21507;SDS011;10915;54.352;9.074;2022-08-21T07:37:58;10.23;;;3.20;;
21507;SDS011;10915;54.352;9.074;2022-08-21T07:40:24;4.93;;;2.60;;
21507;SDS011;10915;54.352;9.074;2022-08-21T07:42:50;10.07;;;3.23;;
21507;SDS011;10915;54.352;9.074;2022-08-21T07:45:17;7.43;;;2.90;;
21507;SDS011;10915;54.352;9.074;2022-08-21T07:47:44;9.07;;;3.40;;
21507;SDS011;10915;54.352;9.074;2022-08-21T07:50:11;6.93;;;3.10;;
21507;SDS011;10915;54.352;9.074;2022-08-21T07:52:37;10.23;;;3.53;;
21507;SDS011;10915;54.352;9.074;2022-08-21T07:55:02;4.90;;;2.97;;
21507;SDS011;10915;54.352;9.074;2022-08-21T07:57:28;6.47;;;3.13;;
21507;SDS011;10915;54.352;9.074;2022-08-21T07:59:54;9.77;;;3.27;;
21507;SDS011;10915;54.352;9.074;2022-08-21T08:02:23;5.43;;;2.47;;
21507;SDS011;10915;54.352;9.074;2022-08-21T08:04:50;9.30;;;3.00;;
21507;SDS011;10915;54.352;9.074;2022-08-21T08:07:15;8.57;;;3.20;;
21507;SDS011;10915;54.352;9.074;2022-08-21T08:09:41;9.90;;;2.77;;
21507;SDS011;10915;54.352;9.074;2022-08-21T08:12:07;6.33;;;2.50;;
21507;SDS011;10915;54.352;9.074;2022-08-21T08:14:32;5.53;;;2.07;;
21507;SDS011;10915;54.352;9.074;2022-08-21T08:16:58;8.17;;;2.50;;
21507;SDS011;10915;54.352;9.074;2022-08-21T08:19:24;7.83;;;2.57;;
21507;SDS011;10915;54.352;9.074;2022-08-21T08:21:50;4.53;;;2.07;;
21507;SDS011;10915;54.352;9.074;2022-08-21T08:24:15;7.27;;;2.27;;
21507;SDS011;10915;54.352;9.074;2022-08-21T08:26:41;9.73;;;2.13;;
21507;SDS011;10915;54.352;9.074;2022-08-21T08:29:06;8.67;;;2.30;;
21507;SDS011;10915;54.352;9.074;2022-08-21T08:31:32;6.43;;;2.20;;
21507;SDS011;10915;54.352;9.074;2022-08-21T08:33:58;5.90;;;2.17;;
21507;SDS011;10915;54.352;9.074;2022-08-21T08:36:30;8.47;;;1.80;;
21507;SDS011;10915;54.352;9.074;2022-08-21T08:38:59;3.47;;;1.53;;
21507;SDS011;10915;54.352;9.074;2022-08-21T08:41:26;5.70;;;1.90;;
21507;SDS011;10915;54.352;9.074;2022-08-21T08:43:53;5.17;;;1.63;;
21507;SDS011;10915;54.352;9.074;2022-08-21T08:52:03;6.23;;;1.73;;
21507;SDS011;10915;54.352;9.074;2022-08-21T08:54:37;4.83;;;1.90;;
21507;SDS011;10915;54.352;9.074;2022-08-21T08:57:14;6.37;;;2.13;;
21507;SDS011;10915;54.352;9.074;2022-08-21T08:59:44;5.20;;;1.80;;
21507;SDS011;10915;54.352;9.074;2022-08-21T09:02:13;5.80;;;2.20;;
21507;SDS011;10915;54.352;9.074;2022-08-21T09:04:40;10.37;;;2.00;;
21507;SDS011;10915;54.352;9.074;2022-08-21T09:07:13;4.37;;;1.83;;
21507;SDS011;10915;54.352;9.074;2022-08-21T09:13:12;5.83;;;1.83;;
21507;SDS011;10915;54.352;9.074;2022-08-21T09:21:02;3.93;;;1.40;;
21507;SDS011;10915;54.352;9.074;2022-08-21T09:23:56;4.33;;;1.53;;
21507;SDS011;10915;54.352;9.074;2022-08-21T09:26:27;6.13;;;1.73;;
21507;SDS011;10915;54.352;9.074;2022-08-21T09:28:58;5.33;;;1.33;;
21507;SDS011;10915;54.352;9.074;2022-08-21T09:31:35;4.13;;;1.57;;
21507;SDS011;10915;54.352;9.074;2022-08-21T09:34:08;4.70;;;1.67;;
21507;SDS011;10915;54.352;9.074;2022-08-21T09:36:47;7.10;;;1.30;;
21507;SDS011;10915;54.352;9.074;2022-08-21T09:39:22;9.63;;;1.63;;
21507;SDS011;10915;54.352;9.074;2022-08-21T09:44:28;3.75;;;1.45;;
21507;SDS011;10915;54.352;9.074;2022-08-21T09:46:56;3.95;;;1.15;;
21507;SDS011;10915;54.352;9.074;2022-08-21T09:49:32;3.38;;;1.20;;
21507;SDS011;10915;54.352;9.074;2022-08-21T09:52:00;3.05;;;1.55;;
21507;SDS011;10915;54.352;9.074;2022-08-21T09:54:32;4.53;;;1.48;;
21507;SDS011;10915;54.352;9.074;2022-08-21T09:59:53;4.15;;;1.30;;
21507;SDS011;10915;54.352;9.074;2022-08-21T10:02:32;3.47;;;1.23;;
21507;SDS011;10915;54.352;9.074;2022-08-21T10:05:00;3.10;;;0.85;;
21507;SDS011;10915;54.352;9.074;2022-08-21T10:07:39;5.18;;;1.30;;
21507;SDS011;10915;54.352;9.074;2022-08-21T10:10:07;4.90;;;1.00;;
21507;SDS011;10915;54.352;9.074;2022-08-21T10:12:49;5.63;;;1.43;;
21507;SDS011;10915;54.352;9.074;2022-08-21T10:26:02;5.67;;;1.33;;
21507;SDS011;10915;54.352;9.074;2022-08-21T10:31:47;7.53;;;1.70;;
21507;SDS011;10915;54.352;9.074;2022-08-21T10:40:24;6.27;;;1.70;;
21507;SDS011;10915;54.352;9.074;2022-08-21T10:43:16;5.80;;;1.60;;
21507;SDS011;10915;54.352;9.074;2022-08-21T10:48:34;6.13;;;1.60;;
21507;SDS011;10915;54.352;9.074;2022-08-21T10:51:06;4.53;;;1.30;;
21507;SDS011;10915;54.352;9.074;2022-08-21T10:56:30;5.93;;;1.90;;
21507;SDS011;10915;54.352;9.074;2022-08-21T10:59:14;7.22;;;2.15;;
21507;SDS011;10915;54.352;9.074;2022-08-21T11:01:49;5.05;;;1.67;;
21507;SDS011;10915;54.352;9.074;2022-08-21T11:04:24;6.78;;;1.63;;
21507;SDS011;10915;54.352;9.074;2022-08-21T11:06:58;6.25;;;1.95;;
21507;SDS011;10915;54.352;9.074;2022-08-21T11:09:28;6.22;;;1.85;;
21507;SDS011;10915;54.352;9.074;2022-08-21T11:17:22;7.55;;;2.00;;
21507;SDS011;10915;54.352;9.074;2022-08-21T11:20:13;8.43;;;2.00;;
21507;SDS011;10915;54.352;9.074;2022-08-21T11:22:58;6.95;;;1.95;;
21507;SDS011;10915;54.352;9.074;2022-08-21T11:25:35;8.20;;;1.95;;
21507;SDS011;10915;54.352;9.074;2022-08-21T11:28:13;6.60;;;1.98;;
21507;SDS011;10915;54.352;9.074;2022-08-21T11:31:06;8.40;;;2.17;;
21507;SDS011;10915;54.352;9.074;2022-08-21T11:33:50;6.18;;;1.98;;
21507;SDS011;10915;54.352;9.074;2022-08-21T11:39:30;6.88;;;1.95;;
21507;SDS011;10915;54.352;9.074;2022-08-21T11:42:03;8.43;;;2.00;;
21507;SDS011;10915;54.352;9.074;2022-08-21T12:00:26;8.65;;;2.20;;
21507;SDS011;10915;54.352;9.074;2022-08-21T12:02:59;5.00;;;1.58;;
21507;SDS011;10915;54.352;9.074;2022-08-21T12:05:42;6.38;;;1.77;;
21507;SDS011;10915;54.352;9.074;2022-08-21T12:08:38;5.93;;;1.15;;
21507;SDS011;10915;54.352;9.074;2022-08-21T12:11:08;9.05;;;2.88;;
21507;SDS011;10915;54.352;9.074;2022-08-21T12:13:58;7.05;;;2.00;;
21507;SDS011;10915;54.352;9.074;2022-08-21T12:16:34;7.85;;;2.30;;
21507;SDS011;10915;54.352;9.074;2022-08-21T12:19:44;10.07;;;1.90;;
21507;SDS011;10915;54.352;9.074;2022-08-21T12:21:57;7.38;;;2.10;;
21507;SDS011;10915;54.352;9.074;2022-08-21T12:24:37;7.13;;;2.17;;
21507;SDS011;10915;54.352;9.074;2022-08-21T12:29:58;6.75;;;2.10;;
21507;SDS011;10915;54.352;9.074;2022-08-21T12:33:17;5.20;;;2.13;;
21507;SDS011;10915;54.352;9.074;2022-08-21T12:35:27;8.60;;;2.20;;
21507;SDS011;10915;54.352;9.074;2022-08-21T12:40:44;6.90;;;2.15;;
21507;SDS011;10915;54.352;9.074;2022-08-21T12:43:18;9.37;;;2.60;;
21507;SDS011;10915;54.352;9.074;2022-08-21T12:45:48;11.07;;;2.07;;
21507;SDS011;10915;54.352;9.074;2022-08-21T12:51:11;8.65;;;2.40;;
21507;SDS011;10915;54.352;9.074;2022-08-21T12:54:03;7.78;;;1.92;;
21507;SDS011;10915;54.352;9.074;2022-08-21T12:56:30;10.27;;;2.10;;
21507;SDS011;10915;54.352;9.074;2022-08-21T12:59:10;7.45;;;2.13;;
21507;SDS011;10915;54.352;9.074;2022-08-21T13:01:48;7.23;;;2.20;;
21507;SDS011;10915;54.352;9.074;2022-08-21T13:04:17;9.27;;;2.60;;
21507;SDS011;10915;54.352;9.074;2022-08-21T13:07:13;6.28;;;2.08;;
21507;SDS011;10915;54.352;9.074;2022-08-21T13:09:58;5.78;;;1.80;;
21507;SDS011;10915;54.352;9.074;2022-08-21T13:12:37;7.05;;;1.75;;
21507;SDS011;10915;54.352;9.074;2022-08-21T13:15:04;10.07;;;2.35;;
21507;SDS011;10915;54.352;9.074;2022-08-21T13:17:31;4.47;;;1.80;;
21507;SDS011;10915;54.352;9.074;2022-08-21T13:20:01;7.55;;;2.35;;
21507;SDS011;10915;54.352;9.074;2022-08-21T13:22:29;6.33;;;1.63;;
21507;SDS011;10915;54.352;9.074;2022-08-21T13:24:55;9.55;;;2.40;;
21507;SDS011;10915;54.352;9.074;2022-08-21T13:27:30;8.32;;;2.30;;
21507;SDS011;10915;54.352;9.074;2022-08-21T13:30:07;6.80;;;2.20;;
21507;SDS011;10915;54.352;9.074;2022-08-21T13:32:34;8.50;;;2.50;;
21507;SDS011;10915;54.352;9.074;2022-08-21T13:35:10;7.85;;;2.38;;
21507;SDS011;10915;54.352;9.074;2022-08-21T13:37:48;10.75;;;2.17;;
21507;SDS011;10915;54.352;9.074;2022-08-21T13:40:18;8.02;;;2.38;;
21507;SDS011;10915;54.352;9.074;2022-08-21T13:42:49;6.40;;;2.38;;
21507;SDS011;10915;54.352;9.074;2022-08-21T13:45:21;7.63;;;2.20;;
21507;SDS011;10915;54.352;9.074;2022-08-21T13:47:49;10.33;;;2.40;;
21507;SDS011;10915;54.352;9.074;2022-08-21T13:50:15;8.20;;;1.92;;
21507;SDS011;10915;54.352;9.074;2022-08-21T13:52:54;7.18;;;2.33;;
21507;SDS011;10915;54.352;9.074;2022-08-21T13:55:21;11.05;;;2.17;;
21507;SDS011;10915;54.352;9.074;2022-08-21T13:57:47;9.00;;;2.20;;
21507;SDS011;10915;54.352;9.074;2022-08-21T14:00:25;8.13;;;2.00;;
21507;SDS011;10915;54.352;9.074;2022-08-21T14:02:53;4.63;;;1.97;;
21507;SDS011;10915;54.352;9.074;2022-08-21T14:05:31;5.55;;;2.15;;
21507;SDS011;10915;54.352;9.074;2022-08-21T14:10:27;5.17;;;1.90;;
21507;SDS011;10915;54.352;9.074;2022-08-21T14:12:57;5.47;;;1.92;;
21507;SDS011;10915;54.352;9.074;2022-08-21T14:15:29;8.63;;;2.03;;
21507;SDS011;10915;54.352;9.074;2022-08-21T14:18:15;12.48;;;2.50;;
21507;SDS011;10915;54.352;9.074;2022-08-21T14:20:42;7.77;;;2.10;;
21507;SDS011;10915;54.352;9.074;2022-08-21T14:23:08;9.55;;;2.50;;
21507;SDS011;10915;54.352;9.074;2022-08-21T14:30:50;6.37;;;1.90;;
21507;SDS011;10915;54.352;9.074;2022-08-21T14:33:22;7.03;;;2.20;;
21507;SDS011;10915;54.352;9.074;2022-08-21T14:35:53;8.80;;;2.17;;
21507;SDS011;10915;54.352;9.074;2022-08-21T14:38:21;5.63;;;2.27;;
21507;SDS011;10915;54.352;9.074;2022-08-21T14:40:50;8.03;;;2.53;;
21507;SDS011;10915;54.352;9.074;2022-08-21T14:43:22;7.03;;;2.20;;
21507;SDS011;10915;54.352;9.074;2022-08-21T14:45:50;8.07;;;2.67;;
21507;SDS011;10915;54.352;9.074;2022-08-21T14:48:15;9.20;;;2.40;;
21507;SDS011;10915;54.352;9.074;2022-08-21T14:50:41;5.27;;;1.87;;
21507;SDS011;10915;54.352;9.074;2022-08-21T14:53:07;6.53;;;2.23;;
21507;SDS011;10915;54.352;9.074;2022-08-21T14:55:32;5.77;;;2.00;;
21507;SDS011;10915;54.352;9.074;2022-08-21T14:58:21;7.80;;;2.23;;
21507;SDS011;10915;54.352;9.074;2022-08-21T15:00:48;5.90;;;1.87;;
21507;SDS011;10915;54.352;9.074;2022-08-21T15:03:15;9.00;;;2.23;;
21507;SDS011;10915;54.352;9.074;2022-08-21T15:05:40;6.97;;;2.17;;
21507;SDS011;10915;54.352;9.074;2022-08-21T15:08:06;5.60;;;1.87;;
21507;SDS011;10915;54.352;9.074;2022-08-21T15:10:32;7.63;;;2.03;;
21507;SDS011;10915;54.352;9.074;2022-08-21T15:13:00;10.90;;;1.87;;
21507;SDS011;10915;54.352;9.074;2022-08-21T15:15:26;7.70;;;1.93;;
21507;SDS011;10915;54.352;9.074;2022-08-21T15:17:52;6.30;;;2.10;;
21507;SDS011;10915;54.352;9.074;2022-08-21T15:20:17;7.10;;;2.30;;
21507;SDS011;10915;54.352;9.074;2022-08-21T15:22:43;7.43;;;2.03;;
21507;SDS011;10915;54.352;9.074;2022-08-21T15:25:09;8.67;;;2.60;;
21507;SDS011;10915;54.352;9.074;2022-08-21T15:27:34;9.97;;;2.10;;
21507;SDS011;10915;54.352;9.074;2022-08-21T15:30:01;6.80;;;2.27;;
21507;SDS011;10915;54.352;9.074;2022-08-21T15:32:29;7.37;;;2.07;;
21507;SDS011;10915;54.352;9.074;2022-08-21T15:34:56;8.47;;;1.77;;
21507;SDS011;10915;54.352;9.074;2022-08-21T15:37:23;8.30;;;1.83;;
21507;SDS011;10915;54.352;9.074;2022-08-21T15:39:50;6.43;;;1.60;;
21507;SDS011;10915;54.352;9.074;2022-08-21T15:42:17;5.67;;;1.90;;
21507;SDS011;10915;54.352;9.074;2022-08-21T15:44:44;5.73;;;2.00;;
21507;SDS011;10915;54.352;9.074;2022-08-21T15:47:19;7.63;;;2.10;;
21507;SDS011;10915;54.352;9.074;2022-08-21T15:49:47;7.33;;;2.27;;
21507;SDS011;10915;54.352;9.074;2022-08-21T15:52:17;9.47;;;2.30;;
21507;SDS011;10915;54.352;9.074;2022-08-21T15:54:44;7.17;;;2.20;;
21507;SDS011;10915;54.352;9.074;2022-08-21T15:57:10;7.80;;;2.30;;
21507;SDS011;10915;54.352;9.074;2022-08-21T15:59:43;6.50;;;2.20;;
21507;SDS011;10915;54.352;9.074;2022-08-21T16:02:16;8.43;;;2.40;;
21507;SDS011;10915;54.352;9.074;2022-08-21T16:04:51;6.10;;;2.13;;
21507;SDS011;10915;54.352;9.074;2022-08-21T16:07:17;6.90;;;1.93;;
21507;SDS011;10915;54.352;9.074;2022-08-21T16:09:42;6.13;;;2.00;;
21507;SDS011;10915;54.352;9.074;2022-08-21T16:12:26;8.97;;;2.57;;
21507;SDS011;10915;54.352;9.074;2022-08-21T16:14:58;5.03;;;1.93;;
21507;SDS011;10915;54.352;9.074;2022-08-21T16:17:29;8.33;;;2.30;;
21507;SDS011;10915;54.352;9.074;2022-08-21T16:19:58;6.60;;;1.83;;
21507;SDS011;10915;54.352;9.074;2022-08-21T16:22:26;4.70;;;1.87;;
21507;SDS011;10915;54.352;9.074;2022-08-21T16:24:52;4.57;;;1.53;;
21507;SDS011;10915;54.352;9.074;2022-08-21T16:27:18;6.43;;;1.70;;